LIMF METAR and TAF | Updated Today

LIMF METAR

Turin Airport

Observation time: 23 min. ago

LIMF 011450Z VRB02KT 8000 NSC 14/M01 Q1020

Need help? Read our tutorial on how to read METARs or read the parsed version below.

Turin Airport (LIMF) METAR

  • Weather conditions on Wed, 01 Feb 2023 14:50:00 +0000 (23 min. ago):
  • Present conditions: Dry
  • Clouds: No significant clouds are observed
  • Visibility: 8000 meters
  • Wind: Variable at 2 knots
  • Temperature: 14 celsius
  • Dew point: -1 celsius
  • Pressure: 1020 millibars
  • Remarks: None


Useful to know...

LIMF TAF

Turin Airport

TAF LIMF 011100Z 0112/0212 VRB05KT CAVOK
Observation time: 4:13 hr. ago
Need help? Read our tutorial on how to read TAFs or read the parsed version below.

Parsed version of TAF for Turin Airport (LIMF)

  • From 01 February at 12:00 UTC, to day 02 of the month at 12:00 UTC
  • Visibility: Greater than 10 km
  • Wind: Variable at 5